createdAt,value
2019-01-28T11:56:29.376Z,4.50
2019-01-28T11:58:58.245Z,4.50
2019-01-28T12:01:34.287Z,4.50
2019-01-28T12:04:03.604Z,4.50
2019-01-28T12:06:32.379Z,4.40
2019-01-28T12:09:01.274Z,4.40
2019-01-28T12:11:30.248Z,4.40
2019-01-28T12:13:58.924Z,4.40
2019-01-28T12:16:27.811Z,4.40
2019-01-28T12:18:56.654Z,4.30
2019-01-28T12:21:25.504Z,4.30
2019-01-28T12:23:54.271Z,4.30
2019-01-28T12:26:23.023Z,4.30
2019-01-28T12:28:52.085Z,4.30
2019-01-28T12:31:20.757Z,4.20
2019-01-28T12:33:49.856Z,4.20
2019-01-28T12:36:18.544Z,4.20
2019-01-28T12:38:47.203Z,4.20
2019-01-28T12:41:17.463Z,4.20
2019-01-28T12:43:46.640Z,4.20
2019-01-28T12:46:15.305Z,4.20
2019-01-28T12:48:43.991Z,4.40
2019-01-28T12:51:13.097Z,4.40
2019-01-28T12:53:42.055Z,4.30
2019-01-28T12:56:10.831Z,4.20
2019-01-28T12:58:39.872Z,4.10
2019-01-28T13:01:08.816Z,4.10
2019-01-28T13:03:37.871Z,4.30
2019-01-28T13:06:06.972Z,4.10
2019-01-28T13:08:35.645Z,4.10
2019-01-28T13:11:04.923Z,4.00
2019-01-28T13:13:33.660Z,4.00
2019-01-28T13:16:02.580Z,4.00
2019-01-28T13:18:31.228Z,4.10
2019-01-28T13:21:00.008Z,4.00
2019-01-28T13:23:29.272Z,3.90
2019-01-28T13:25:59.192Z,3.90
2019-01-28T13:28:28.067Z,4.00
2019-01-28T13:30:58.576Z,4.00
2019-01-28T13:33:27.538Z,4.00
2019-01-28T13:35:56.411Z,4.00
2019-01-28T13:38:28.092Z,3.90
2019-01-28T13:40:56.819Z,3.90
2019-01-28T13:43:25.541Z,3.80
2019-01-28T13:45:55.305Z,3.70
2019-01-28T13:48:23.983Z,3.80
2019-01-28T13:50:52.739Z,3.70
2019-01-28T13:53:21.780Z,3.70
2019-01-28T13:55:50.453Z,3.70
2019-01-28T13:58:19.349Z,3.70
2019-01-28T14:00:49.485Z,3.70
2019-01-28T14:03:18.232Z,3.70
2019-01-28T14:05:47.076Z,3.70
2019-01-28T14:08:16.122Z,3.70
2019-01-28T14:10:44.796Z,3.70
2019-01-28T14:13:13.465Z,3.60
2019-01-28T14:15:43.108Z,3.60
2019-01-28T14:18:13.483Z,3.60
2019-01-28T14:20:42.952Z,3.70
2019-01-28T14:23:12.213Z,3.70
2019-01-28T14:25:40.868Z,3.70
2019-01-28T14:28:11.312Z,3.70
2019-01-28T14:30:46.776Z,3.70
2019-01-28T14:33:15.486Z,3.80
2019-01-28T14:35:44.378Z,3.80
2019-01-28T14:38:14.416Z,3.70
2019-01-28T14:40:44.837Z,3.70
2019-01-28T14:43:13.579Z,3.70
2019-01-28T14:45:42.681Z,3.70
2019-01-28T14:48:12.827Z,3.80
2019-01-28T14:50:44.709Z,3.70
2019-01-28T14:53:14.197Z,3.80
2019-01-28T14:55:43.934Z,3.70
2019-01-28T14:58:16.553Z,3.70
2019-01-28T15:00:46.919Z,3.70
2019-01-28T15:03:16.047Z,3.70
2019-01-28T15:05:46.228Z,3.70
2019-01-28T15:08:14.903Z,3.70
2019-01-28T15:10:44.017Z,3.70
2019-01-28T15:13:12.755Z,3.70
2019-01-28T15:15:42.086Z,3.70
2019-01-28T15:18:14.559Z,3.70
2019-01-28T15:20:43.242Z,3.70
2019-01-28T15:23:13.011Z,3.70
2019-01-28T15:25:42.225Z,3.70
2019-01-28T15:28:10.976Z,3.70
2019-01-28T15:30:40.106Z,3.70
2019-01-28T15:33:09.308Z,3.70
2019-01-28T15:35:38.138Z,3.70
2019-01-28T15:38:07.164Z,3.70
2019-01-28T15:40:36.809Z,3.60
2019-01-28T15:43:06.388Z,3.60
2019-01-28T15:45:40.806Z,3.60
2019-01-28T15:48:10.341Z,3.60
2019-01-28T15:50:39.284Z,3.50
2019-01-28T15:53:08.801Z,3.50
2019-01-28T15:55:40.379Z,3.50
2019-01-28T15:58:10.481Z,3.50
2019-01-28T16:00:40.779Z,3.40
2019-01-28T16:03:09.837Z,3.40
2019-01-28T16:05:38.511Z,3.40
2019-01-28T16:08:07.969Z,3.40
2019-01-28T16:10:36.841Z,3.40
2019-01-28T16:13:05.815Z,3.40
2019-01-28T16:15:38.623Z,3.40
2019-01-28T16:18:09.019Z,3.40
2019-01-28T16:20:38.721Z,3.30
2019-01-28T16:23:08.355Z,3.30
2019-01-28T16:25:37.333Z,3.30
2019-01-28T16:28:06.455Z,3.30
2019-01-28T16:30:37.538Z,3.30
2019-01-28T16:33:06.842Z,3.30
2019-01-28T16:35:35.985Z,3.30
2019-01-28T16:38:05.896Z,3.30
2019-01-28T16:40:35.755Z,3.30
2019-01-28T16:43:06.019Z,3.30
2019-01-28T16:45:34.804Z,3.40
2019-01-28T16:48:05.754Z,3.30
2019-01-28T16:50:35.536Z,3.40
2019-01-28T16:53:04.660Z,3.40
2019-01-28T16:55:33.620Z,3.40
2019-01-28T16:58:02.886Z,3.40
2019-01-28T17:00:35.210Z,3.40
2019-01-28T17:03:14.202Z,3.40
2019-01-28T17:05:43.760Z,3.40
2019-01-28T17:08:14.468Z,3.30
2019-01-28T17:10:46.012Z,3.30
2019-01-28T17:13:14.940Z,3.30
2019-01-28T17:15:43.705Z,3.30
2019-01-28T17:18:12.400Z,3.30
2019-01-28T17:20:41.292Z,3.30
2019-01-28T17:23:10.520Z,3.30
2019-01-28T17:25:44.634Z,3.30
2019-01-28T17:28:13.785Z,3.30
2019-01-28T17:30:46.439Z,3.30
2019-01-28T17:33:15.397Z,3.30
2019-01-28T17:35:44.233Z,3.30
2019-01-28T17:38:13.188Z,3.20
2019-01-28T17:40:43.805Z,3.20
2019-01-28T17:43:13.747Z,3.30
2019-01-28T17:45:43.132Z,3.30
2019-01-28T17:48:13.106Z,3.20
2019-01-28T17:50:43.616Z,3.20
2019-01-28T17:53:12.635Z,3.10
2019-01-28T17:55:41.688Z,3.10
2019-01-28T17:58:10.555Z,3.20
2019-01-28T18:00:50.501Z,3.20
2019-01-28T18:03:19.387Z,3.20
2019-01-28T18:05:48.211Z,3.20
2019-01-28T18:08:17.302Z,3.20
2019-01-28T18:10:49.343Z,3.20
2019-01-28T18:13:18.144Z,3.10
2019-01-28T18:15:47.264Z,3.10
2019-01-28T18:18:15.960Z,3.10
2019-01-28T18:20:51.523Z,3.00
2019-01-28T18:23:37.467Z,3.00
2019-01-28T18:26:06.292Z,3.00
2019-01-28T18:28:35.208Z,3.10
2019-01-28T18:31:04.172Z,3.00
2019-01-28T18:33:35.890Z,3.00
2019-01-28T18:36:05.651Z,3.00
2019-01-28T18:38:34.899Z,3.00
2019-01-28T18:41:04.225Z,3.00
2019-01-28T18:43:33.108Z,3.00
2019-01-28T18:46:05.166Z,3.00
2019-01-28T18:48:35.176Z,2.90
2019-01-28T18:51:03.994Z,2.90
2019-01-28T18:53:32.667Z,3.00
2019-01-28T18:56:01.628Z,2.90
2019-01-28T18:58:30.477Z,3.00
2019-01-28T19:00:59.221Z,3.00
2019-01-28T19:03:28.089Z,3.00
2019-01-28T19:06:08.651Z,2.90
2019-01-28T19:08:48.186Z,3.00
2019-01-28T19:11:36.348Z,3.00
2019-01-28T19:14:13.142Z,2.90
2019-01-28T19:17:01.256Z,2.90
2019-01-28T19:19:48.494Z,2.90
2019-01-28T19:22:25.529Z,2.90
2019-01-28T19:24:54.429Z,2.90
2019-01-28T19:27:23.208Z,2.90
2019-01-28T19:29:51.912Z,2.90
2019-01-28T19:32:30.144Z,2.90
2019-01-28T19:35:00.254Z,2.90
2019-01-28T19:37:29.805Z,2.80
2019-01-28T19:39:58.520Z,2.80
2019-01-28T19:42:27.608Z,2.80
2019-01-28T19:44:56.286Z,2.70
2019-01-28T19:47:25.299Z,2.80
2019-01-28T19:49:57.079Z,2.80
2019-01-28T19:52:26.050Z,2.80
2019-01-28T19:54:54.715Z,2.80
2019-01-28T19:57:23.517Z,2.80
2019-01-28T19:59:53.255Z,2.80
2019-01-28T20:02:22.089Z,2.80
2019-01-28T20:04:50.890Z,2.90
2019-01-28T20:07:20.703Z,2.90
2019-01-28T20:09:53.031Z,2.90
2019-01-28T20:12:22.578Z,2.90
2019-01-28T20:14:51.326Z,3.00
2019-01-28T20:17:20.287Z,3.00
2019-01-28T20:19:49.005Z,3.00
2019-01-28T20:22:18.123Z,3.00
2019-01-28T20:24:47.344Z,3.10
2019-01-28T20:27:16.353Z,3.10
2019-01-28T20:29:46.042Z,3.10
2019-01-28T20:32:14.753Z,3.00
2019-01-28T20:34:43.719Z,3.00
2019-01-28T20:37:14.060Z,3.00
2019-01-28T20:39:42.805Z,3.00
2019-01-28T20:42:11.722Z,3.00
2019-01-28T20:44:43.540Z,3.00
2019-01-28T20:47:12.523Z,3.00
2019-01-28T20:49:41.350Z,3.00
2019-01-28T20:52:10.143Z,3.00
2019-01-28T20:54:38.856Z,2.90
2019-01-28T20:57:10.706Z,2.90
2019-01-28T20:59:39.679Z,2.80
2019-01-28T21:02:08.784Z,2.90
2019-01-28T21:04:37.473Z,2.90
2019-01-28T21:07:06.279Z,2.90
2019-01-28T21:09:35.444Z,2.90
2019-01-28T21:12:04.392Z,2.90
2019-01-28T21:14:33.121Z,2.90
2019-01-28T21:17:02.150Z,2.90
2019-01-28T21:19:30.868Z,2.90
2019-01-28T21:21:59.577Z,2.90
2019-01-28T21:24:28.853Z,2.90
2019-01-28T21:26:57.695Z,2.90
2019-01-28T21:29:26.351Z,2.90
2019-01-28T21:31:55.134Z,2.90
2019-01-28T21:34:23.806Z,2.90
2019-01-28T21:37:11.745Z,2.90
2019-01-28T21:39:40.492Z,2.90
2019-01-28T21:42:09.339Z,2.90
2019-01-28T21:44:38.005Z,2.80
2019-01-28T21:47:07.284Z,2.80
2019-01-28T21:49:36.192Z,2.70
2019-01-28T21:52:05.780Z,2.70
2019-01-28T21:54:34.516Z,2.70
2019-01-28T21:57:04.848Z,2.80
2019-01-28T21:59:33.699Z,2.80
2019-01-28T22:02:02.440Z,2.80
2019-01-28T22:04:31.473Z,2.80
2019-01-28T22:07:00.247Z,2.80
2019-01-28T22:09:29.018Z,2.80
2019-01-28T22:11:57.890Z,2.70
2019-01-28T22:14:26.800Z,2.70
2019-01-28T22:16:55.561Z,2.70
2019-01-28T22:19:24.313Z,2.70
2019-01-28T22:21:58.976Z,2.70
2019-01-28T22:24:23.491Z,2.70
2019-01-28T22:26:52.174Z,2.60
2019-01-28T22:29:21.152Z,2.60
2019-01-28T22:31:49.874Z,2.70
2019-01-28T22:34:18.807Z,2.60
2019-01-28T22:36:50.623Z,2.60
2019-01-28T22:39:19.387Z,2.60
2019-01-28T22:41:48.794Z,2.70
2019-01-28T22:44:17.864Z,2.70
2019-01-28T22:46:46.589Z,2.70
2019-01-28T22:49:15.396Z,2.60
2019-01-28T22:51:44.143Z,2.60
2019-01-28T22:54:12.924Z,2.60
2019-01-28T22:56:41.704Z,2.60
2019-01-28T22:59:10.471Z,2.60
2019-01-28T23:01:41.200Z,2.60
2019-01-28T23:04:10.128Z,2.70
2019-01-28T23:06:38.945Z,2.60
2019-01-28T23:09:11.154Z,2.60
2019-01-28T23:11:39.975Z,2.60
2019-01-28T23:14:09.705Z,2.60
2019-01-28T23:16:38.467Z,2.60
2019-01-28T23:19:07.351Z,2.60
2019-01-28T23:21:36.107Z,2.70
2019-01-28T23:24:05.134Z,2.70
2019-01-28T23:26:33.786Z,2.70
2019-01-28T23:29:02.542Z,2.70
2019-01-28T23:31:31.298Z,2.70
2019-01-28T23:33:59.968Z,2.70
2019-01-28T23:36:28.946Z,2.60
2019-01-28T23:38:57.637Z,2.60
2019-01-28T23:41:26.507Z,2.50
2019-01-28T23:43:58.371Z,2.60
2019-01-28T23:46:27.124Z,2.60
2019-01-28T23:48:55.859Z,2.60
2019-01-28T23:55:06.241Z,2.60
2019-01-28T23:57:34.924Z,2.50
